createdAt,value
2022-10-20T00:01:28.579Z,3.10
2022-10-20T00:03:57.675Z,3.77
2022-10-20T00:06:27.976Z,3.70
2022-10-20T00:09:00.636Z,3.53
2022-10-20T00:11:32.701Z,3.60
2022-10-20T00:14:03.387Z,3.70
2022-10-20T00:16:37.203Z,3.50
2022-10-20T00:19:05.972Z,3.50
2022-10-20T00:21:35.089Z,3.93
2022-10-20T00:24:06.005Z,3.90
2022-10-20T00:26:34.148Z,3.60
2022-10-20T00:29:03.933Z,3.77
2022-10-20T00:31:34.294Z,3.27
2022-10-20T00:34:06.505Z,3.30
2022-10-20T00:36:37.851Z,3.80
2022-10-20T00:39:07.326Z,3.30
2022-10-20T00:41:35.440Z,3.70
2022-10-20T00:44:05.420Z,3.13
2022-10-20T00:46:38.603Z,3.67
2022-10-20T00:49:14.346Z,3.80
2022-10-20T00:51:45.307Z,3.33
2022-10-20T00:54:18.930Z,4.00
2022-10-20T00:56:51.294Z,3.10
2022-10-20T00:59:21.518Z,3.67
2022-10-20T01:01:51.055Z,4.40
2022-10-20T01:04:25.716Z,3.70
2022-10-20T01:06:55.215Z,3.60
2022-10-20T01:09:25.909Z,4.47
2022-10-20T01:12:05.395Z,3.33
2022-10-20T01:14:42.436Z,3.70
2022-10-20T01:17:17.025Z,3.97
2022-10-20T01:20:30.813Z,3.43
2022-10-20T01:23:44.200Z,3.90
2022-10-20T01:26:47.768Z,4.03
2022-10-20T01:29:27.705Z,3.73
2022-10-20T01:32:05.273Z,4.03
2022-10-20T01:34:37.491Z,3.70
2022-10-20T01:37:09.201Z,4.47
2022-10-20T01:39:42.054Z,3.50
2022-10-20T01:42:13.828Z,3.37
2022-10-20T01:44:43.826Z,3.57
2022-10-20T01:47:15.318Z,3.60
2022-10-20T01:49:43.902Z,4.00
2022-10-20T01:52:15.382Z,3.17
2022-10-20T01:54:43.656Z,3.10
2022-10-20T01:57:28.022Z,3.70
2022-10-20T02:00:06.808Z,3.80
2022-10-20T02:03:06.158Z,4.00
2022-10-20T02:05:43.415Z,3.93
2022-10-20T02:08:15.712Z,3.27
2022-10-20T02:10:47.592Z,3.80
2022-10-20T02:13:16.537Z,3.13
2022-10-20T02:15:48.739Z,3.20
2022-10-20T02:18:25.932Z,3.27
2022-10-20T02:20:56.516Z,3.67
2022-10-20T02:23:24.983Z,3.13
2022-10-20T02:25:54.230Z,3.50
2022-10-20T02:28:23.909Z,3.60
2022-10-20T02:30:54.530Z,3.47
2022-10-20T02:33:26.002Z,3.30
2022-10-20T02:35:58.359Z,3.40
2022-10-20T02:38:26.690Z,3.80
2022-10-20T02:40:55.842Z,3.73
2022-10-20T02:43:26.279Z,3.70
2022-10-20T02:45:58.319Z,3.53
2022-10-20T02:48:26.376Z,3.80
2022-10-20T02:50:55.668Z,3.50
2022-10-20T02:53:26.197Z,4.00
2022-10-20T02:55:54.535Z,4.27
2022-10-20T02:58:22.641Z,3.97
2022-10-20T03:00:52.594Z,4.07
2022-10-20T03:03:23.086Z,3.90
2022-10-20T03:05:51.115Z,3.83
2022-10-20T03:08:19.224Z,4.00
2022-10-20T03:10:49.421Z,4.03
2022-10-20T03:13:17.557Z,4.07
2022-10-20T03:15:47.672Z,3.70
2022-10-20T03:18:15.717Z,3.83
2022-10-20T03:20:46.637Z,4.23
2022-10-20T03:23:17.680Z,4.13
2022-10-20T03:25:48.423Z,4.00
2022-10-20T03:28:16.878Z,4.90
2022-10-20T03:30:46.581Z,4.30
2022-10-20T03:33:14.678Z,4.17
2022-10-20T03:35:43.956Z,4.10
2022-10-20T03:38:14.301Z,4.00
2022-10-20T03:40:43.398Z,4.10
2022-10-20T03:43:11.728Z,4.23
2022-10-20T03:45:40.853Z,4.50
2022-10-20T03:48:09.960Z,4.63
2022-10-20T03:50:39.862Z,4.50
2022-10-20T03:53:08.960Z,4.60
2022-10-20T03:55:40.195Z,4.27
2022-10-20T03:58:10.369Z,4.50
2022-10-20T04:00:40.852Z,4.57
2022-10-20T04:03:09.241Z,4.80
2022-10-20T04:05:39.327Z,3.90
2022-10-20T04:08:07.876Z,5.00
2022-10-20T04:10:37.039Z,5.20
2022-10-20T04:13:09.343Z,4.57
2022-10-20T04:15:38.733Z,5.00
2022-10-20T04:18:07.764Z,4.83
2022-10-20T04:20:39.340Z,5.20
2022-10-20T04:23:12.197Z,4.10
2022-10-20T04:25:46.074Z,4.70
2022-10-20T04:28:16.571Z,4.57
2022-10-20T04:30:47.916Z,5.17
2022-10-20T04:33:16.501Z,5.23
2022-10-20T04:35:45.717Z,4.87
2022-10-20T04:38:14.784Z,4.77
2022-10-20T04:40:42.829Z,5.13
2022-10-20T04:43:11.755Z,4.10
2022-10-20T04:45:46.010Z,4.80
2022-10-20T04:48:16.702Z,4.97
2022-10-20T04:50:47.877Z,4.47
2022-10-20T04:53:15.976Z,4.40
2022-10-20T04:55:45.167Z,4.43
2022-10-20T04:58:13.155Z,4.90
2022-10-20T05:00:44.236Z,5.07
2022-10-20T05:03:13.655Z,5.80
2022-10-20T05:05:41.824Z,5.30
2022-10-20T05:08:12.036Z,5.20
2022-10-20T05:10:43.173Z,5.50
2022-10-20T05:13:13.316Z,5.30
2022-10-20T05:15:42.194Z,5.40
2022-10-20T05:18:11.601Z,5.30
2022-10-20T05:20:41.295Z,6.30
2022-10-20T05:23:20.533Z,5.70
2022-10-20T05:25:48.987Z,5.07
2022-10-20T05:28:17.043Z,5.30
2022-10-20T05:30:45.837Z,5.83
2022-10-20T05:33:17.696Z,5.27
2022-10-20T05:35:48.200Z,5.13
2022-10-20T05:38:16.262Z,5.80
2022-10-20T05:40:44.825Z,6.17
2022-10-20T05:43:12.840Z,6.07
2022-10-20T05:45:40.869Z,6.93
2022-10-20T05:48:10.330Z,6.77
2022-10-20T05:50:40.273Z,6.00
2022-10-20T05:53:09.320Z,6.23
2022-10-20T05:55:37.501Z,6.20
2022-10-20T05:58:05.475Z,6.83
2022-10-20T06:00:41.632Z,6.30
2022-10-20T06:03:09.968Z,6.30
2022-10-20T06:05:41.265Z,7.20
2022-10-20T06:08:12.784Z,6.63
2022-10-20T06:10:41.842Z,7.50
2022-10-20T06:13:12.822Z,6.73
2022-10-20T06:15:40.931Z,7.00
2022-10-20T06:18:10.165Z,7.20
2022-10-20T06:20:38.263Z,7.40
2022-10-20T06:23:09.135Z,7.00
2022-10-20T06:25:37.942Z,7.40
2022-10-20T06:28:07.414Z,6.60
2022-10-20T06:30:35.386Z,6.87
2022-10-20T06:33:03.437Z,6.47
2022-10-20T06:35:32.400Z,6.50
2022-10-20T06:38:00.959Z,6.27
2022-10-20T06:40:31.913Z,7.23
2022-10-20T06:43:08.274Z,9.50
2022-10-20T06:45:36.909Z,9.20
2022-10-20T06:48:05.644Z,8.80
2022-10-20T06:50:35.474Z,8.20
2022-10-20T06:53:04.199Z,8.07
2022-10-20T06:55:37.203Z,7.70
2022-10-20T06:58:05.211Z,7.20
2022-10-20T07:00:33.285Z,6.67
2022-10-20T07:03:04.347Z,6.90
2022-10-20T07:05:36.182Z,7.47
2022-10-20T07:08:06.372Z,7.40
2022-10-20T07:10:36.182Z,7.30
2022-10-20T07:13:04.541Z,7.20
2022-10-20T07:15:34.997Z,7.27
2022-10-20T07:18:04.642Z,6.30
2022-10-20T07:20:37.448Z,6.77
2022-10-20T07:23:05.596Z,6.50
2022-10-20T07:25:38.781Z,7.73
2022-10-20T07:28:07.060Z,7.30
2022-10-20T07:30:39.908Z,6.97
2022-10-20T07:33:08.267Z,7.10
2022-10-20T07:35:37.531Z,7.67
2022-10-20T07:38:05.579Z,6.97
2022-10-20T07:40:33.838Z,6.60
2022-10-20T07:43:05.768Z,6.80
2022-10-20T07:45:36.082Z,7.27
2022-10-20T07:48:09.310Z,6.90
2022-10-20T07:50:37.652Z,6.90
2022-10-20T07:53:07.141Z,7.00
2022-10-20T07:55:38.985Z,6.63
2022-10-20T07:58:10.432Z,7.80
2022-10-20T08:03:12.752Z,7.60
2022-10-20T08:05:43.398Z,7.93
2022-10-20T08:08:15.189Z,7.93
2022-10-20T08:10:44.059Z,7.60
2022-10-20T08:13:14.664Z,8.53
2022-10-20T08:15:50.266Z,7.17
2022-10-20T08:18:20.744Z,7.50
2022-10-20T08:20:49.195Z,8.57
2022-10-20T08:23:17.585Z,8.10
2022-10-20T08:25:46.110Z,8.40
2022-10-20T08:28:17.761Z,9.17
2022-10-20T08:30:46.100Z,9.77
2022-10-20T08:33:14.156Z,9.53
2022-10-20T08:35:44.431Z,9.00
2022-10-20T08:38:13.646Z,8.93
2022-10-20T08:40:43.341Z,9.13
2022-10-20T08:43:18.359Z,8.50
2022-10-20T08:45:47.182Z,10.07
2022-10-20T08:48:19.606Z,8.63
2022-10-20T08:50:50.318Z,8.13
2022-10-20T08:53:21.695Z,7.90
2022-10-20T08:55:53.401Z,8.27
2022-10-20T08:58:25.733Z,7.40
2022-10-20T09:01:02.810Z,7.37
2022-10-20T09:03:35.964Z,6.80
2022-10-20T09:06:08.598Z,6.40
2022-10-20T09:08:39.465Z,6.63
2022-10-20T09:11:10.563Z,7.27
2022-10-20T09:13:40.610Z,7.33
2022-10-20T09:16:33.603Z,6.70
2022-10-20T09:19:17.744Z,6.37
2022-10-20T09:21:48.060Z,6.07
2022-10-20T09:24:16.108Z,6.43
2022-10-20T09:27:04.744Z,6.63
2022-10-20T09:29:40.407Z,6.20
2022-10-20T09:35:26.950Z,6.70
2022-10-20T09:38:08.711Z,5.60
2022-10-20T09:40:39.071Z,5.43
2022-10-20T09:43:11.095Z,5.30
2022-10-20T09:45:54.252Z,5.10
2022-10-20T09:48:25.683Z,5.37
2022-10-20T09:50:58.808Z,5.60
2022-10-20T09:53:32.080Z,4.70
2022-10-20T09:56:02.332Z,4.50
2022-10-20T09:58:32.767Z,5.03
2022-10-20T10:01:04.811Z,4.77
2022-10-20T10:03:40.804Z,4.80
2022-10-20T10:06:27.975Z,4.50
2022-10-20T10:08:57.493Z,4.30
2022-10-20T10:11:32.762Z,4.00
2022-10-20T10:14:01.345Z,4.00
2022-10-20T10:16:41.631Z,4.00
2022-10-20T10:19:21.693Z,4.50
2022-10-20T10:21:54.405Z,4.23
2022-10-20T10:24:39.521Z,4.87
2022-10-20T10:27:20.840Z,4.07
2022-10-20T10:29:49.119Z,4.67
2022-10-20T10:32:22.117Z,4.43
2022-10-20T10:35:17.362Z,3.80
2022-10-20T10:37:48.546Z,4.10
2022-10-20T10:40:18.023Z,4.30
2022-10-20T10:42:55.257Z,4.47
2022-10-20T10:45:43.834Z,4.60
2022-10-20T10:48:48.157Z,3.83
2022-10-20T10:51:23.580Z,4.73
2022-10-20T10:54:02.649Z,4.07
2022-10-20T10:56:36.326Z,4.13
2022-10-20T10:59:07.703Z,5.80
2022-10-20T11:01:56.167Z,6.40
2022-10-20T11:04:47.049Z,6.30
2022-10-20T11:07:24.680Z,5.30
2022-10-20T11:10:02.440Z,4.60
2022-10-20T11:13:01.300Z,4.70
2022-10-20T11:15:50.718Z,4.13
2022-10-20T11:18:31.533Z,4.20
2022-10-20T11:21:10.088Z,4.33
2022-10-20T11:23:57.689Z,3.50
2022-10-20T11:26:29.519Z,3.60
2022-10-20T11:28:59.201Z,4.07
2022-10-20T11:31:32.086Z,4.10
2022-10-20T11:34:06.791Z,4.10
2022-10-20T11:36:43.000Z,4.20
2022-10-20T11:39:18.852Z,4.10
2022-10-20T11:41:49.787Z,3.83
2022-10-20T11:44:23.294Z,4.17
2022-10-20T11:46:55.196Z,5.00
2022-10-20T11:49:26.801Z,3.77
2022-10-20T11:52:15.351Z,3.33
2022-10-20T11:55:00.329Z,5.00
2022-10-20T11:57:41.337Z,4.33
2022-10-20T12:00:29.573Z,3.90
2022-10-20T12:03:41.732Z,4.63
2022-10-20T12:06:31.623Z,3.83
2022-10-20T12:09:26.040Z,4.03
2022-10-20T12:11:57.490Z,3.67
2022-10-20T12:14:29.110Z,3.37
2022-10-20T12:17:26.261Z,4.13
2022-10-20T12:19:54.338Z,4.10
2022-10-20T12:22:43.856Z,4.77
2022-10-20T12:25:36.562Z,4.00
2022-10-20T12:28:45.232Z,4.17
2022-10-20T12:31:13.462Z,3.47
2022-10-20T12:34:00.767Z,3.40
2022-10-20T12:36:34.435Z,8.20
2022-10-20T12:39:21.400Z,5.27
2022-10-20T12:42:05.330Z,3.90
2022-10-20T12:44:42.425Z,3.73
2022-10-20T12:47:15.983Z,3.77
2022-10-20T12:49:54.683Z,3.60
2022-10-20T12:52:25.806Z,3.90
2022-10-20T12:54:58.049Z,2.97
2022-10-20T12:57:35.772Z,3.33
2022-10-20T13:00:13.590Z,3.93
2022-10-20T13:02:52.654Z,3.97
2022-10-20T13:05:54.108Z,4.80
2022-10-20T13:08:31.224Z,4.00
2022-10-20T13:11:37.678Z,3.73
2022-10-20T13:14:21.737Z,3.53
2022-10-20T13:16:55.376Z,3.60
2022-10-20T13:19:28.557Z,3.20
2022-10-20T13:21:59.953Z,4.10
2022-10-20T13:24:32.051Z,3.40
2022-10-20T13:27:04.422Z,3.20
2022-10-20T13:29:39.657Z,3.53
2022-10-20T13:32:15.998Z,4.30
2022-10-20T13:34:48.681Z,4.70
2022-10-20T13:37:39.089Z,4.40
2022-10-20T13:40:23.405Z,3.90
2022-10-20T13:43:01.674Z,3.50
2022-10-20T13:45:44.852Z,3.77
2022-10-20T13:48:24.021Z,3.83
2022-10-20T13:50:58.926Z,3.30
2022-10-20T13:53:32.199Z,3.80
2022-10-20T13:56:13.214Z,3.70
2022-10-20T13:58:44.165Z,3.50
2022-10-20T14:01:24.449Z,3.40
2022-10-20T14:03:54.024Z,3.20
2022-10-20T14:06:34.661Z,3.23
2022-10-20T14:09:15.472Z,3.00
2022-10-20T14:11:46.499Z,3.37
2022-10-20T14:14:18.541Z,3.70
2022-10-20T14:16:55.522Z,3.80
2022-10-20T14:19:28.129Z,3.40
2022-10-20T14:21:58.164Z,3.90
2022-10-20T14:24:35.249Z,3.07
2022-10-20T14:27:05.444Z,2.93
2022-10-20T14:29:35.388Z,3.33
2022-10-20T14:32:09.159Z,3.20
2022-10-20T14:34:40.620Z,2.80
2022-10-20T14:37:26.126Z,3.37
2022-10-20T14:39:54.603Z,3.23
2022-10-20T14:42:27.261Z,3.87
2022-10-20T14:44:58.562Z,2.80
2022-10-20T14:47:33.482Z,3.90
2022-10-20T14:50:01.631Z,3.10
2022-10-20T14:52:31.463Z,3.20
2022-10-20T14:54:59.810Z,3.03
2022-10-20T14:57:32.913Z,3.20
2022-10-20T15:00:06.253Z,4.10
2022-10-20T15:02:42.763Z,3.53
2022-10-20T15:05:25.362Z,3.40
2022-10-20T15:07:53.745Z,3.13
2022-10-20T15:10:27.838Z,3.47
2022-10-20T15:12:57.010Z,3.60
2022-10-20T15:15:27.247Z,3.87
2022-10-20T15:18:14.859Z,3.30
2022-10-20T15:20:45.397Z,3.20
2022-10-20T15:23:15.366Z,3.60
2022-10-20T15:25:49.648Z,3.17
2022-10-20T15:28:43.430Z,3.60
2022-10-20T15:31:21.418Z,4.33
2022-10-20T15:33:57.156Z,3.70
2022-10-20T15:36:32.311Z,3.63
2022-10-20T15:39:01.498Z,3.70
2022-10-20T15:41:31.461Z,3.60
2022-10-20T15:44:07.512Z,3.73
2022-10-20T15:46:36.696Z,4.03
2022-10-20T15:49:08.827Z,4.20
2022-10-20T15:51:40.070Z,4.57
2022-10-20T15:54:09.549Z,4.50
2022-10-20T15:56:39.151Z,4.00
2022-10-20T15:59:07.575Z,4.20
2022-10-20T16:01:36.978Z,4.07
2022-10-20T16:04:17.827Z,4.03
2022-10-20T16:06:47.958Z,3.73
2022-10-20T16:09:24.394Z,3.83
2022-10-20T16:11:54.216Z,4.07
2022-10-20T16:14:25.161Z,4.30
2022-10-20T16:16:53.774Z,4.63
2022-10-20T16:19:24.500Z,4.23
2022-10-20T16:21:56.282Z,4.20
2022-10-20T16:24:24.694Z,4.17
2022-10-20T16:26:55.935Z,4.20
2022-10-20T16:29:26.410Z,5.10
2022-10-20T16:31:54.720Z,4.63
2022-10-20T16:34:27.699Z,5.50
2022-10-20T16:36:59.127Z,4.50
2022-10-20T16:39:33.268Z,4.77
2022-10-20T16:42:06.063Z,5.43
2022-10-20T16:44:34.363Z,4.83
2022-10-20T16:47:03.132Z,4.73
2022-10-20T16:49:33.515Z,4.77
2022-10-20T16:52:04.219Z,5.33
2022-10-20T16:54:33.645Z,5.47
2022-10-20T16:57:15.229Z,5.20
2022-10-20T16:59:45.446Z,4.53
2022-10-20T17:02:15.278Z,4.37
2022-10-20T17:04:49.468Z,6.03
2022-10-20T17:07:20.947Z,5.87
2022-10-20T17:09:49.850Z,6.53
2022-10-20T17:12:21.283Z,5.90
2022-10-20T17:14:51.774Z,5.40
2022-10-20T17:17:23.305Z,5.03
2022-10-20T17:19:54.704Z,5.73
2022-10-20T17:22:24.139Z,5.27
2022-10-20T17:24:54.369Z,4.80
2022-10-20T17:27:24.970Z,5.30
2022-10-20T17:29:54.509Z,5.57
2022-10-20T17:32:23.579Z,5.37
2022-10-20T17:34:54.188Z,5.67
2022-10-20T17:37:24.463Z,6.50
2022-10-20T17:39:54.197Z,6.00
2022-10-20T17:42:24.333Z,4.73
2022-10-20T17:44:55.558Z,5.57
2022-10-20T17:47:24.752Z,6.50
2022-10-20T17:52:44.702Z,6.40
2022-10-20T17:55:16.047Z,6.50
2022-10-20T17:57:47.690Z,5.20
2022-10-20T18:00:26.785Z,5.13
2022-10-20T18:03:07.168Z,5.73
2022-10-20T18:05:39.686Z,6.13
2022-10-20T18:08:10.442Z,6.40
2022-10-20T18:10:44.275Z,5.57
2022-10-20T18:13:16.687Z,6.00
2022-10-20T18:15:46.062Z,6.23
2022-10-20T18:18:15.956Z,5.10
2022-10-20T18:20:55.749Z,6.00
2022-10-20T18:23:24.572Z,6.10
2022-10-20T18:25:57.543Z,5.93
2022-10-20T18:28:27.068Z,5.80
2022-10-20T18:30:55.646Z,5.60
2022-10-20T18:33:25.086Z,6.37
2022-10-20T18:36:08.911Z,5.80
2022-10-20T18:38:46.545Z,6.57
2022-10-20T18:41:19.816Z,7.20
2022-10-20T18:43:57.746Z,6.30
2022-10-20T18:46:30.981Z,6.20
2022-10-20T18:49:04.024Z,6.20
2022-10-20T18:51:38.545Z,5.83
2022-10-20T18:54:10.044Z,6.00
2022-10-20T18:56:46.123Z,6.17
2022-10-20T18:59:24.646Z,5.90
2022-10-20T19:01:57.145Z,6.50
2022-10-20T19:04:29.876Z,5.60
2022-10-20T19:07:18.562Z,5.90
2022-10-20T19:09:58.052Z,5.77
2022-10-20T19:12:39.734Z,5.90
2022-10-20T19:15:14.488Z,5.77
2022-10-20T19:17:47.251Z,7.73
2022-10-20T19:20:27.566Z,6.30
2022-10-20T19:23:16.534Z,6.50
2022-10-20T19:25:54.466Z,6.30
2022-10-20T19:28:25.729Z,5.50
2022-10-20T19:30:56.637Z,5.93
2022-10-20T19:33:29.987Z,5.73
2022-10-20T19:36:01.435Z,6.00
2022-10-20T19:38:33.302Z,5.77
2022-10-20T19:41:02.852Z,6.40
2022-10-20T19:43:34.233Z,6.60
2022-10-20T19:46:06.968Z,6.33
2022-10-20T19:48:43.099Z,6.70
2022-10-20T19:51:14.047Z,6.37
2022-10-20T19:53:50.849Z,6.60
2022-10-20T19:56:23.106Z,6.90
2022-10-20T19:58:56.278Z,6.53
2022-10-20T20:01:26.777Z,6.60
2022-10-20T20:03:57.453Z,6.20
2022-10-20T20:06:27.003Z,6.03
2022-10-20T20:09:13.210Z,5.93
2022-10-20T20:11:47.518Z,5.60
2022-10-20T20:14:21.047Z,5.53
2022-10-20T20:16:51.550Z,6.00
2022-10-20T20:19:23.827Z,6.20
2022-10-20T20:21:53.779Z,5.73
2022-10-20T20:24:24.822Z,5.87
2022-10-20T20:26:53.212Z,5.27
2022-10-20T20:29:21.734Z,5.97
2022-10-20T20:31:51.709Z,5.47
2022-10-20T20:34:22.467Z,6.17
2022-10-20T20:36:50.788Z,4.90
2022-10-20T20:39:19.304Z,5.40
2022-10-20T20:41:49.493Z,4.80
2022-10-20T20:44:17.913Z,5.27
2022-10-20T20:46:45.990Z,5.50
2022-10-20T20:49:14.132Z,5.10
2022-10-20T20:51:42.221Z,4.73
2022-10-20T20:54:10.957Z,5.20
2022-10-20T20:56:39.024Z,5.80
2022-10-20T20:59:08.460Z,6.00
2022-10-20T21:01:36.546Z,5.53
2022-10-20T21:04:10.130Z,5.70
2022-10-20T21:07:00.762Z,4.70
2022-10-20T21:09:27.585Z,4.97
2022-10-20T21:11:55.586Z,4.60
2022-10-20T21:14:24.986Z,5.57
2022-10-20T21:16:53.031Z,4.90
2022-10-20T21:19:21.956Z,5.30
2022-10-20T21:21:52.296Z,4.70
2022-10-20T21:24:20.289Z,5.27
2022-10-20T21:26:48.863Z,5.00
2022-10-20T21:29:17.103Z,5.10
2022-10-20T21:31:46.588Z,5.03
2022-10-20T21:34:14.836Z,5.30
2022-10-20T21:36:42.888Z,4.90
2022-10-20T21:39:15.823Z,4.90
2022-10-20T21:41:44.794Z,4.60
2022-10-20T21:44:14.760Z,4.37
2022-10-20T21:46:47.389Z,4.60
2022-10-20T21:49:18.434Z,4.60
2022-10-20T21:51:48.308Z,4.67
2022-10-20T21:54:17.705Z,4.23
2022-10-20T21:56:47.070Z,4.80
2022-10-20T21:59:19.897Z,4.60
2022-10-20T22:01:48.243Z,4.50
2022-10-20T22:04:19.479Z,5.10
2022-10-20T22:06:47.538Z,4.57
2022-10-20T22:09:15.991Z,3.83
2022-10-20T22:11:45.910Z,4.73
2022-10-20T22:14:13.961Z,4.83
2022-10-20T22:16:42.760Z,4.10
2022-10-20T22:19:13.801Z,4.47
2022-10-20T22:21:45.168Z,4.50
2022-10-20T22:24:13.843Z,4.57
2022-10-20T22:26:42.551Z,4.70
2022-10-20T22:29:11.343Z,4.43
2022-10-20T22:31:40.104Z,4.53
2022-10-20T22:34:08.484Z,4.80
2022-10-20T22:36:36.752Z,4.83
2022-10-20T22:39:06.641Z,5.50
2022-10-20T22:41:34.868Z,4.73
2022-10-20T22:44:02.937Z,5.20
2022-10-20T22:46:30.958Z,4.53
2022-10-20T22:51:32.131Z,5.47
2022-10-20T22:54:00.262Z,5.07
2022-10-20T22:56:29.732Z,5.20
2022-10-20T22:58:57.772Z,4.50
2022-10-20T23:01:26.168Z,4.63
2022-10-20T23:03:54.223Z,5.07
2022-10-20T23:06:23.885Z,4.30
2022-10-20T23:08:54.483Z,4.60
2022-10-20T23:11:22.609Z,4.33
2022-10-20T23:13:52.125Z,5.23
2022-10-20T23:16:20.696Z,4.80
2022-10-20T23:18:48.857Z,5.10
2022-10-20T23:21:16.958Z,5.13
2022-10-20T23:23:45.620Z,4.93
2022-10-20T23:26:13.982Z,5.10
2022-10-20T23:28:42.052Z,4.70
2022-10-20T23:31:13.075Z,5.03
2022-10-20T23:33:42.459Z,4.97
2022-10-20T23:36:10.729Z,5.60
2022-10-20T23:38:38.882Z,4.30
2022-10-20T23:41:07.172Z,5.10
2022-10-20T23:46:09.119Z,5.13
2022-10-20T23:48:38.502Z,5.03
2022-10-20T23:51:07.471Z,5.27
2022-10-20T23:53:35.857Z,5.53
2022-10-20T23:56:04.234Z,5.50
2022-10-20T23:58:32.286Z,5.27
